sensor_id;sensor_type;location;lat;lon;timestamp;P1;durP1;ratioP1;P2;durP2;ratioP2
51184;SDS011;37248;59.350;18.050;2023-02-10T00:01:12;2.40;;;0.75;;
51184;SDS011;37248;59.350;18.050;2023-02-10T00:03:38;2.77;;;0.70;;
51184;SDS011;37248;59.350;18.050;2023-02-10T00:06:04;3.23;;;1.00;;
51184;SDS011;37248;59.350;18.050;2023-02-10T00:08:30;2.17;;;0.70;;
51184;SDS011;37248;59.350;18.050;2023-02-10T00:10:59;1.73;;;0.73;;
51184;SDS011;37248;59.350;18.050;2023-02-10T00:13:25;1.27;;;0.60;;
51184;SDS011;37248;59.350;18.050;2023-02-10T00:15:50;1.43;;;0.70;;
51184;SDS011;37248;59.350;18.050;2023-02-10T00:18:16;3.43;;;0.90;;
51184;SDS011;37248;59.350;18.050;2023-02-10T00:20:41;2.20;;;0.70;;
51184;SDS011;37248;59.350;18.050;2023-02-10T00:23:06;1.10;;;0.50;;
51184;SDS011;37248;59.350;18.050;2023-02-10T00:25:32;1.00;;;0.50;;
51184;SDS011;37248;59.350;18.050;2023-02-10T00:27:58;0.90;;;0.50;;
51184;SDS011;37248;59.350;18.050;2023-02-10T00:30:23;1.50;;;0.80;;
51184;SDS011;37248;59.350;18.050;2023-02-10T00:32:48;1.70;;;0.70;;
51184;SDS011;37248;59.350;18.050;2023-02-10T00:35:14;1.90;;;0.70;;
51184;SDS011;37248;59.350;18.050;2023-02-10T00:37:39;1.40;;;0.47;;
51184;SDS011;37248;59.350;18.050;2023-02-10T00:40:04;1.37;;;0.60;;
51184;SDS011;37248;59.350;18.050;2023-02-10T00:42:29;1.57;;;0.60;;
51184;SDS011;37248;59.350;18.050;2023-02-10T00:44:55;2.07;;;0.70;;
51184;SDS011;37248;59.350;18.050;2023-02-10T00:47:20;0.97;;;0.40;;
51184;SDS011;37248;59.350;18.050;2023-02-10T00:49:45;1.00;;;0.40;;
51184;SDS011;37248;59.350;18.050;2023-02-10T00:52:10;1.80;;;0.60;;
51184;SDS011;37248;59.350;18.050;2023-02-10T00:54:36;2.77;;;0.40;;
51184;SDS011;37248;59.350;18.050;2023-02-10T00:57:01;4.00;;;0.40;;
51184;SDS011;37248;59.350;18.050;2023-02-10T00:59:26;0.80;;;0.40;;
51184;SDS011;37248;59.350;18.050;2023-02-10T01:01:51;3.20;;;0.70;;
51184;SDS011;37248;59.350;18.050;2023-02-10T01:04:17;4.60;;;0.63;;
51184;SDS011;37248;59.350;18.050;2023-02-10T01:06:42;2.67;;;0.45;;
51184;SDS011;37248;59.350;18.050;2023-02-10T01:09:07;2.10;;;0.57;;
51184;SDS011;37248;59.350;18.050;2023-02-10T01:11:33;0.97;;;0.40;;
51184;SDS011;37248;59.350;18.050;2023-02-10T01:13:58;2.53;;;0.53;;
51184;SDS011;37248;59.350;18.050;2023-02-10T01:16:23;2.20;;;0.70;;
51184;SDS011;37248;59.350;18.050;2023-02-10T01:18:48;2.30;;;0.50;;
51184;SDS011;37248;59.350;18.050;2023-02-10T01:21:15;0.97;;;0.40;;
51184;SDS011;37248;59.350;18.050;2023-02-10T01:23:41;2.22;;;0.55;;
51184;SDS011;37248;59.350;18.050;2023-02-10T01:26:07;1.00;;;0.47;;
51184;SDS011;37248;59.350;18.050;2023-02-10T01:28:32;1.60;;;0.40;;
51184;SDS011;37248;59.350;18.050;2023-02-10T01:30:57;0.83;;;0.30;;
51184;SDS011;37248;59.350;18.050;2023-02-10T01:33:23;0.83;;;0.40;;
51184;SDS011;37248;59.350;18.050;2023-02-10T01:35:48;1.60;;;0.50;;
51184;SDS011;37248;59.350;18.050;2023-02-10T01:38:13;1.03;;;0.50;;
51184;SDS011;37248;59.350;18.050;2023-02-10T01:40:39;2.30;;;0.40;;
51184;SDS011;37248;59.350;18.050;2023-02-10T01:43:09;1.07;;;0.50;;
51184;SDS011;37248;59.350;18.050;2023-02-10T01:45:37;0.90;;;0.50;;
51184;SDS011;37248;59.350;18.050;2023-02-10T01:48:03;0.60;;;0.30;;
51184;SDS011;37248;59.350;18.050;2023-02-10T01:50:30;1.20;;;0.30;;
51184;SDS011;37248;59.350;18.050;2023-02-10T01:52:56;0.60;;;0.20;;
51184;SDS011;37248;59.350;18.050;2023-02-10T01:55:24;2.10;;;0.30;;
51184;SDS011;37248;59.350;18.050;2023-02-10T01:57:50;0.50;;;0.20;;
51184;SDS011;37248;59.350;18.050;2023-02-10T02:00:19;0.50;;;0.30;;
51184;SDS011;37248;59.350;18.050;2023-02-10T02:02:44;0.73;;;0.20;;
51184;SDS011;37248;59.350;18.050;2023-02-10T02:05:27;0.80;;;0.20;;
51184;SDS011;37248;59.350;18.050;2023-02-10T02:07:54;0.50;;;0.20;;
51184;SDS011;37248;59.350;18.050;2023-02-10T02:10:19;1.67;;;0.20;;
51184;SDS011;37248;59.350;18.050;2023-02-10T02:15:19;1.43;;;0.27;;
51184;SDS011;37248;59.350;18.050;2023-02-10T02:18:00;1.47;;;0.40;;
51184;SDS011;37248;59.350;18.050;2023-02-10T02:21:05;1.10;;;0.30;;
51184;SDS011;37248;59.350;18.050;2023-02-10T02:28:46;0.85;;;0.20;;
51184;SDS011;37248;59.350;18.050;2023-02-10T02:33:43;0.40;;;0.30;;
51184;SDS011;37248;59.350;18.050;2023-02-10T02:36:16;0.67;;;0.20;;
51184;SDS011;37248;59.350;18.050;2023-02-10T02:38:43;0.88;;;0.30;;
51184;SDS011;37248;59.350;18.050;2023-02-10T02:41:09;1.07;;;0.40;;
51184;SDS011;37248;59.350;18.050;2023-02-10T02:43:35;0.98;;;0.28;;
51184;SDS011;37248;59.350;18.050;2023-02-10T02:46:10;0.82;;;0.20;;
51184;SDS011;37248;59.350;18.050;2023-02-10T02:51:49;3.17;;;0.30;;
51184;SDS011;37248;59.350;18.050;2023-02-10T02:56:45;0.33;;;0.20;;
51184;SDS011;37248;59.350;18.050;2023-02-10T03:02:04;0.73;;;0.20;;
51184;SDS011;37248;59.350;18.050;2023-02-10T03:04:31;1.58;;;0.30;;
51184;SDS011;37248;59.350;18.050;2023-02-10T03:06:57;0.45;;;0.20;;
51184;SDS011;37248;59.350;18.050;2023-02-10T03:09:23;0.83;;;0.20;;
51184;SDS011;37248;59.350;18.050;2023-02-10T03:11:48;2.00;;;0.30;;
51184;SDS011;37248;59.350;18.050;2023-02-10T03:14:13;1.33;;;0.30;;
51184;SDS011;37248;59.350;18.050;2023-02-10T03:16:39;2.73;;;0.47;;
51184;SDS011;37248;59.350;18.050;2023-02-10T03:19:05;2.53;;;0.30;;
51184;SDS011;37248;59.350;18.050;2023-02-10T03:21:30;0.70;;;0.20;;
51184;SDS011;37248;59.350;18.050;2023-02-10T03:23:55;2.00;;;0.40;;
51184;SDS011;37248;59.350;18.050;2023-02-10T03:26:20;3.43;;;0.20;;
51184;SDS011;37248;59.350;18.050;2023-02-10T03:28:46;2.00;;;0.20;;
51184;SDS011;37248;59.350;18.050;2023-02-10T03:31:11;1.40;;;0.30;;
51184;SDS011;37248;59.350;18.050;2023-02-10T03:33:36;0.80;;;0.30;;
51184;SDS011;37248;59.350;18.050;2023-02-10T03:36:01;5.00;;;0.33;;
51184;SDS011;37248;59.350;18.050;2023-02-10T03:38:27;1.10;;;0.30;;
51184;SDS011;37248;59.350;18.050;2023-02-10T03:40:52;2.17;;;0.50;;
51184;SDS011;37248;59.350;18.050;2023-02-10T03:43:18;2.57;;;0.30;;
51184;SDS011;37248;59.350;18.050;2023-02-10T03:45:43;1.17;;;0.30;;
51184;SDS011;37248;59.350;18.050;2023-02-10T03:48:09;2.30;;;0.30;;
51184;SDS011;37248;59.350;18.050;2023-02-10T03:50:34;2.30;;;0.20;;
51184;SDS011;37248;59.350;18.050;2023-02-10T03:52:59;3.27;;;0.20;;
51184;SDS011;37248;59.350;18.050;2023-02-10T03:55:25;0.87;;;0.20;;
51184;SDS011;37248;59.350;18.050;2023-02-10T03:57:50;0.60;;;0.20;;
51184;SDS011;37248;59.350;18.050;2023-02-10T04:00:15;2.17;;;0.20;;
51184;SDS011;37248;59.350;18.050;2023-02-10T04:02:41;1.45;;;0.20;;
51184;SDS011;37248;59.350;18.050;2023-02-10T04:05:06;1.07;;;0.23;;
51184;SDS011;37248;59.350;18.050;2023-02-10T04:07:31;0.37;;;0.10;;
51184;SDS011;37248;59.350;18.050;2023-02-10T04:09:57;1.40;;;0.20;;
51184;SDS011;37248;59.350;18.050;2023-02-10T04:12:22;1.67;;;0.20;;
51184;SDS011;37248;59.350;18.050;2023-02-10T04:14:47;0.73;;;0.20;;
51184;SDS011;37248;59.350;18.050;2023-02-10T04:17:12;2.57;;;0.30;;
51184;SDS011;37248;59.350;18.050;2023-02-10T04:19:38;0.82;;;0.10;;
51184;SDS011;37248;59.350;18.050;2023-02-10T04:22:03;0.87;;;0.23;;
51184;SDS011;37248;59.350;18.050;2023-02-10T04:24:28;0.60;;;0.20;;
51184;SDS011;37248;59.350;18.050;2023-02-10T04:26:54;0.60;;;0.30;;
51184;SDS011;37248;59.350;18.050;2023-02-10T04:29:19;2.00;;;0.20;;
51184;SDS011;37248;59.350;18.050;2023-02-10T04:31:44;1.17;;;0.20;;
51184;SDS011;37248;59.350;18.050;2023-02-10T04:34:09;1.10;;;0.23;;
51184;SDS011;37248;59.350;18.050;2023-02-10T04:36:35;0.80;;;0.20;;
51184;SDS011;37248;59.350;18.050;2023-02-10T04:39:00;0.50;;;0.10;;
51184;SDS011;37248;59.350;18.050;2023-02-10T04:41:26;0.40;;;0.30;;
51184;SDS011;37248;59.350;18.050;2023-02-10T04:43:51;0.67;;;0.30;;
51184;SDS011;37248;59.350;18.050;2023-02-10T04:46:16;0.97;;;0.30;;
51184;SDS011;37248;59.350;18.050;2023-02-10T04:48:41;1.20;;;0.30;;
51184;SDS011;37248;59.350;18.050;2023-02-10T04:51:10;1.70;;;0.20;;
51184;SDS011;37248;59.350;18.050;2023-02-10T04:53:36;1.08;;;0.38;;
51184;SDS011;37248;59.350;18.050;2023-02-10T04:56:01;0.85;;;0.35;;
51184;SDS011;37248;59.350;18.050;2023-02-10T04:58:28;0.40;;;0.13;;
51184;SDS011;37248;59.350;18.050;2023-02-10T05:00:54;0.70;;;0.33;;
51184;SDS011;37248;59.350;18.050;2023-02-10T05:03:20;0.20;;;0.10;;
51184;SDS011;37248;59.350;18.050;2023-02-10T05:05:45;0.30;;;0.10;;
51184;SDS011;37248;59.350;18.050;2023-02-10T05:08:10;0.60;;;0.20;;
51184;SDS011;37248;59.350;18.050;2023-02-10T05:10:36;2.00;;;0.30;;
51184;SDS011;37248;59.350;18.050;2023-02-10T05:13:01;1.60;;;0.20;;
51184;SDS011;37248;59.350;18.050;2023-02-10T05:15:26;0.77;;;0.30;;
51184;SDS011;37248;59.350;18.050;2023-02-10T05:17:51;0.57;;;0.20;;
51184;SDS011;37248;59.350;18.050;2023-02-10T05:20:17;0.40;;;0.20;;
51184;SDS011;37248;59.350;18.050;2023-02-10T05:22:42;0.70;;;0.20;;
51184;SDS011;37248;59.350;18.050;2023-02-10T05:25:07;2.33;;;0.40;;
51184;SDS011;37248;59.350;18.050;2023-02-10T05:27:33;3.23;;;0.20;;
51184;SDS011;37248;59.350;18.050;2023-02-10T05:29:58;2.40;;;0.30;;
51184;SDS011;37248;59.350;18.050;2023-02-10T05:32:24;3.75;;;0.38;;
51184;SDS011;37248;59.350;18.050;2023-02-10T05:34:50;2.83;;;0.40;;
51184;SDS011;37248;59.350;18.050;2023-02-10T05:37:15;2.60;;;0.30;;
51184;SDS011;37248;59.350;18.050;2023-02-10T05:39:40;2.37;;;0.47;;
51184;SDS011;37248;59.350;18.050;2023-02-10T05:42:06;1.98;;;0.20;;
51184;SDS011;37248;59.350;18.050;2023-02-10T05:44:31;1.07;;;0.27;;
51184;SDS011;37248;59.350;18.050;2023-02-10T05:46:57;1.60;;;0.40;;
51184;SDS011;37248;59.350;18.050;2023-02-10T05:49:22;4.18;;;0.60;;
51184;SDS011;37248;59.350;18.050;2023-02-10T05:51:48;2.07;;;0.33;;
51184;SDS011;37248;59.350;18.050;2023-02-10T05:54:13;1.20;;;0.33;;
51184;SDS011;37248;59.350;18.050;2023-02-10T05:56:39;4.78;;;0.30;;
51184;SDS011;37248;59.350;18.050;2023-02-10T05:59:05;1.35;;;0.40;;
51184;SDS011;37248;59.350;18.050;2023-02-10T06:01:30;2.28;;;0.35;;
51184;SDS011;37248;59.350;18.050;2023-02-10T06:03:56;2.60;;;0.50;;
51184;SDS011;37248;59.350;18.050;2023-02-10T06:06:21;1.33;;;0.17;;
51184;SDS011;37248;59.350;18.050;2023-02-10T06:08:46;2.73;;;0.40;;
51184;SDS011;37248;59.350;18.050;2023-02-10T06:11:12;3.10;;;0.40;;
51184;SDS011;37248;59.350;18.050;2023-02-10T06:13:37;3.07;;;0.47;;
51184;SDS011;37248;59.350;18.050;2023-02-10T06:16:03;3.40;;;0.25;;
51184;SDS011;37248;59.350;18.050;2023-02-10T06:18:28;6.00;;;0.43;;
51184;SDS011;37248;59.350;18.050;2023-02-10T06:20:54;5.40;;;0.73;;
51184;SDS011;37248;59.350;18.050;2023-02-10T06:23:19;4.77;;;0.70;;
51184;SDS011;37248;59.350;18.050;2023-02-10T06:25:45;15.57;;;1.13;;
51184;SDS011;37248;59.350;18.050;2023-02-10T06:28:10;11.88;;;1.05;;
51184;SDS011;37248;59.350;18.050;2023-02-10T06:30:36;17.97;;;1.00;;
51184;SDS011;37248;59.350;18.050;2023-02-10T06:33:01;9.13;;;1.23;;
51184;SDS011;37248;59.350;18.050;2023-02-10T06:35:26;3.80;;;0.77;;
51184;SDS011;37248;59.350;18.050;2023-02-10T06:37:52;7.23;;;0.80;;
51184;SDS011;37248;59.350;18.050;2023-02-10T06:40:17;8.37;;;0.60;;
51184;SDS011;37248;59.350;18.050;2023-02-10T06:42:42;8.73;;;0.60;;
51184;SDS011;37248;59.350;18.050;2023-02-10T06:45:08;4.90;;;0.60;;
51184;SDS011;37248;59.350;18.050;2023-02-10T06:47:34;6.87;;;0.90;;
51184;SDS011;37248;59.350;18.050;2023-02-10T06:49:59;9.53;;;0.73;;
51184;SDS011;37248;59.350;18.050;2023-02-10T06:52:24;6.40;;;0.80;;
51184;SDS011;37248;59.350;18.050;2023-02-10T06:54:51;6.22;;;1.02;;
51184;SDS011;37248;59.350;18.050;2023-02-10T06:57:16;10.93;;;0.93;;
51184;SDS011;37248;59.350;18.050;2023-02-10T06:59:42;7.23;;;0.90;;
51184;SDS011;37248;59.350;18.050;2023-02-10T07:02:08;7.00;;;0.80;;
51184;SDS011;37248;59.350;18.050;2023-02-10T07:04:34;4.13;;;0.80;;
51184;SDS011;37248;59.350;18.050;2023-02-10T07:07:00;7.40;;;0.85;;
51184;SDS011;37248;59.350;18.050;2023-02-10T07:09:25;4.77;;;0.60;;
51184;SDS011;37248;59.350;18.050;2023-02-10T07:11:50;6.40;;;1.02;;
51184;SDS011;37248;59.350;18.050;2023-02-10T07:14:16;6.13;;;1.03;;
51184;SDS011;37248;59.350;18.050;2023-02-10T07:16:41;5.65;;;0.98;;
51184;SDS011;37248;59.350;18.050;2023-02-10T07:19:07;6.00;;;0.80;;
51184;SDS011;37248;59.350;18.050;2023-02-10T07:21:32;5.37;;;0.90;;
51184;SDS011;37248;59.350;18.050;2023-02-10T07:23:57;8.50;;;1.80;;
51184;SDS011;37248;59.350;18.050;2023-02-10T07:26:23;7.65;;;1.02;;
51184;SDS011;37248;59.350;18.050;2023-02-10T07:28:48;9.23;;;1.53;;
51184;SDS011;37248;59.350;18.050;2023-02-10T07:31:14;8.07;;;1.30;;
51184;SDS011;37248;59.350;18.050;2023-02-10T07:33:39;7.20;;;1.50;;
51184;SDS011;37248;59.350;18.050;2023-02-10T07:36:05;7.73;;;1.37;;
51184;SDS011;37248;59.350;18.050;2023-02-10T07:38:30;14.88;;;1.10;;
51184;SDS011;37248;59.350;18.050;2023-02-10T07:40:55;9.27;;;1.23;;
51184;SDS011;37248;59.350;18.050;2023-02-10T07:43:21;6.87;;;1.70;;
51184;SDS011;37248;59.350;18.050;2023-02-10T07:45:46;16.90;;;1.40;;
51184;SDS011;37248;59.350;18.050;2023-02-10T07:48:11;7.03;;;1.70;;
51184;SDS011;37248;59.350;18.050;2023-02-10T07:50:36;8.63;;;1.77;;
51184;SDS011;37248;59.350;18.050;2023-02-10T07:53:02;12.80;;;1.87;;
51184;SDS011;37248;59.350;18.050;2023-02-10T07:55:27;9.18;;;1.98;;
51184;SDS011;37248;59.350;18.050;2023-02-10T07:57:52;15.60;;;2.10;;
51184;SDS011;37248;59.350;18.050;2023-02-10T08:00:18;9.57;;;1.60;;
51184;SDS011;37248;59.350;18.050;2023-02-10T08:02:43;25.07;;;2.60;;
51184;SDS011;37248;59.350;18.050;2023-02-10T08:05:08;11.55;;;2.50;;
51184;SDS011;37248;59.350;18.050;2023-02-10T08:07:34;14.03;;;2.43;;
51184;SDS011;37248;59.350;18.050;2023-02-10T08:09:59;17.67;;;2.47;;
51184;SDS011;37248;59.350;18.050;2023-02-10T08:12:24;8.97;;;2.07;;
51184;SDS011;37248;59.350;18.050;2023-02-10T08:14:49;11.80;;;1.87;;
51184;SDS011;37248;59.350;18.050;2023-02-10T08:17:15;10.03;;;2.00;;
51184;SDS011;37248;59.350;18.050;2023-02-10T08:19:40;12.48;;;2.53;;
51184;SDS011;37248;59.350;18.050;2023-02-10T08:22:05;11.77;;;2.60;;
51184;SDS011;37248;59.350;18.050;2023-02-10T08:24:30;11.55;;;2.55;;
51184;SDS011;37248;59.350;18.050;2023-02-10T08:26:56;9.50;;;2.00;;
51184;SDS011;37248;59.350;18.050;2023-02-10T08:29:21;8.63;;;1.97;;
51184;SDS011;37248;59.350;18.050;2023-02-10T08:31:50;9.50;;;1.60;;
51184;SDS011;37248;59.350;18.050;2023-02-10T08:34:16;8.55;;;1.70;;
51184;SDS011;37248;59.350;18.050;2023-02-10T08:36:42;6.33;;;1.83;;
51184;SDS011;37248;59.350;18.050;2023-02-10T08:39:07;7.97;;;1.47;;
51184;SDS011;37248;59.350;18.050;2023-02-10T08:41:33;6.23;;;1.57;;
51184;SDS011;37248;59.350;18.050;2023-02-10T08:43:58;6.18;;;1.50;;
51184;SDS011;37248;59.350;18.050;2023-02-10T08:46:23;6.97;;;1.90;;
51184;SDS011;37248;59.350;18.050;2023-02-10T08:48:49;7.95;;;1.58;;
51184;SDS011;37248;59.350;18.050;2023-02-10T08:51:14;5.07;;;1.47;;
51184;SDS011;37248;59.350;18.050;2023-02-10T08:53:40;7.90;;;1.63;;
51184;SDS011;37248;59.350;18.050;2023-02-10T08:56:07;6.57;;;1.40;;
51184;SDS011;37248;59.350;18.050;2023-02-10T08:58:33;10.13;;;1.95;;
51184;SDS011;37248;59.350;18.050;2023-02-10T09:00:58;7.70;;;1.20;;
51184;SDS011;37248;59.350;18.050;2023-02-10T09:03:24;4.57;;;1.23;;
51184;SDS011;37248;59.350;18.050;2023-02-10T09:05:49;6.97;;;1.30;;
51184;SDS011;37248;59.350;18.050;2023-02-10T09:08:15;2.38;;;0.90;;
51184;SDS011;37248;59.350;18.050;2023-02-10T09:10:41;3.80;;;1.10;;
51184;SDS011;37248;59.350;18.050;2023-02-10T09:13:07;5.20;;;1.60;;
51184;SDS011;37248;59.350;18.050;2023-02-10T09:15:38;5.68;;;1.50;;
51184;SDS011;37248;59.350;18.050;2023-02-10T09:18:04;3.72;;;1.00;;
51184;SDS011;37248;59.350;18.050;2023-02-10T09:20:29;3.37;;;1.10;;
51184;SDS011;37248;59.350;18.050;2023-02-10T09:22:55;4.00;;;1.10;;
51184;SDS011;37248;59.350;18.050;2023-02-10T09:25:20;3.83;;;1.00;;
51184;SDS011;37248;59.350;18.050;2023-02-10T09:27:46;5.38;;;1.20;;
51184;SDS011;37248;59.350;18.050;2023-02-10T09:30:12;5.03;;;0.80;;
51184;SDS011;37248;59.350;18.050;2023-02-10T09:32:37;4.70;;;1.10;;
51184;SDS011;37248;59.350;18.050;2023-02-10T09:35:03;2.83;;;0.70;;
51184;SDS011;37248;59.350;18.050;2023-02-10T09:37:28;3.27;;;1.00;;
51184;SDS011;37248;59.350;18.050;2023-02-10T09:39:53;6.13;;;1.00;;
51184;SDS011;37248;59.350;18.050;2023-02-10T09:45:02;3.47;;;1.00;;
51184;SDS011;37248;59.350;18.050;2023-02-10T09:57:46;2.95;;;0.90;;
51184;SDS011;37248;59.350;18.050;2023-02-10T10:00:17;1.50;;;0.70;;
51184;SDS011;37248;59.350;18.050;2023-02-10T10:02:46;2.60;;;0.70;;
51184;SDS011;37248;59.350;18.050;2023-02-10T10:07:58;4.43;;;0.80;;
51184;SDS011;37248;59.350;18.050;2023-02-10T10:13:25;2.97;;;0.90;;
51184;SDS011;37248;59.350;18.050;2023-02-10T10:18:53;3.15;;;0.70;;
51184;SDS011;37248;59.350;18.050;2023-02-10T10:21:23;3.47;;;0.82;;
51184;SDS011;37248;59.350;18.050;2023-02-10T10:26:24;3.10;;;0.80;;
51184;SDS011;37248;59.350;18.050;2023-02-10T10:31:37;2.33;;;0.63;;
51184;SDS011;37248;59.350;18.050;2023-02-10T10:34:10;4.88;;;0.98;;
51184;SDS011;37248;59.350;18.050;2023-02-10T10:36:38;2.08;;;0.68;;
51184;SDS011;37248;59.350;18.050;2023-02-10T10:39:14;4.20;;;0.90;;
51184;SDS011;37248;59.350;18.050;2023-02-10T10:41:41;3.92;;;0.80;;
51184;SDS011;37248;59.350;18.050;2023-02-10T10:44:07;2.42;;;0.70;;
51184;SDS011;37248;59.350;18.050;2023-02-10T10:49:05;2.33;;;0.70;;
51184;SDS011;37248;59.350;18.050;2023-02-10T10:51:30;1.40;;;0.60;;
51184;SDS011;37248;59.350;18.050;2023-02-10T10:53:58;2.17;;;0.82;;
51184;SDS011;37248;59.350;18.050;2023-02-10T10:58:48;1.70;;;0.77;;
51184;SDS011;37248;59.350;18.050;2023-02-10T11:01:14;2.10;;;0.70;;
51184;SDS011;37248;59.350;18.050;2023-02-10T11:03:40;2.40;;;0.70;;
51184;SDS011;37248;59.350;18.050;2023-02-10T11:06:07;2.27;;;0.67;;
51184;SDS011;37248;59.350;18.050;2023-02-10T11:08:34;2.00;;;0.80;;
51184;SDS011;37248;59.350;18.050;2023-02-10T11:11:03;2.67;;;0.80;;
51184;SDS011;37248;59.350;18.050;2023-02-10T11:13:29;2.60;;;0.80;;
51184;SDS011;37248;59.350;18.050;2023-02-10T11:16:12;1.70;;;0.80;;
51184;SDS011;37248;59.350;18.050;2023-02-10T11:18:49;2.65;;;0.93;;
51184;SDS011;37248;59.350;18.050;2023-02-10T11:21:15;1.80;;;1.00;;
51184;SDS011;37248;59.350;18.050;2023-02-10T11:23:53;2.47;;;0.70;;
51184;SDS011;37248;59.350;18.050;2023-02-10T11:28:43;3.47;;;0.70;;
51184;SDS011;37248;59.350;18.050;2023-02-10T11:31:28;1.48;;;0.70;;
51184;SDS011;37248;59.350;18.050;2023-02-10T11:36:41;1.88;;;0.55;;
51184;SDS011;37248;59.350;18.050;2023-02-10T11:39:15;1.90;;;0.68;;
51184;SDS011;37248;59.350;18.050;2023-02-10T11:41:42;1.80;;;0.70;;
51184;SDS011;37248;59.350;18.050;2023-02-10T11:44:30;1.30;;;0.65;;
51184;SDS011;37248;59.350;18.050;2023-02-10T11:46:57;4.22;;;0.77;;
51184;SDS011;37248;59.350;18.050;2023-02-10T11:49:23;2.35;;;0.85;;
51184;SDS011;37248;59.350;18.050;2023-02-10T11:51:52;3.10;;;0.85;;
51184;SDS011;37248;59.350;18.050;2023-02-10T11:54:18;3.60;;;0.73;;
51184;SDS011;37248;59.350;18.050;2023-02-10T12:31:56;26.20;;;2.30;;
51184;SDS011;37248;59.350;18.050;2023-02-10T12:39:05;14.30;;;1.58;;
51184;SDS011;37248;59.350;18.050;2023-02-10T12:54:13;9.18;;;1.45;;
51184;SDS011;37248;59.350;18.050;2023-02-10T12:56:43;12.15;;;1.60;;
51184;SDS011;37248;59.350;18.050;2023-02-10T13:02:06;18.10;;;1.93;;
51184;SDS011;37248;59.350;18.050;2023-02-10T13:04:37;5.13;;;1.10;;
51184;SDS011;37248;59.350;18.050;2023-02-10T13:09:55;5.85;;;1.27;;
51184;SDS011;37248;59.350;18.050;2023-02-10T13:14:48;7.30;;;1.40;;
51184;SDS011;37248;59.350;18.050;2023-02-10T13:17:14;6.72;;;1.65;;
51184;SDS011;37248;59.350;18.050;2023-02-10T13:19:44;8.27;;;1.67;;
51184;SDS011;37248;59.350;18.050;2023-02-10T13:25:26;5.78;;;1.30;;
51184;SDS011;37248;59.350;18.050;2023-02-10T13:30:21;3.77;;;1.00;;
51184;SDS011;37248;59.350;18.050;2023-02-10T13:33:02;4.47;;;1.20;;
51184;SDS011;37248;59.350;18.050;2023-02-10T13:35:29;4.60;;;1.13;;
51184;SDS011;37248;59.350;18.050;2023-02-10T13:37:57;4.07;;;1.00;;
51184;SDS011;37248;59.350;18.050;2023-02-10T13:41:15;6.30;;;1.13;;
51184;SDS011;37248;59.350;18.050;2023-02-10T13:43:31;4.20;;;0.93;;
51184;SDS011;37248;59.350;18.050;2023-02-10T13:45:56;5.97;;;1.08;;
51184;SDS011;37248;59.350;18.050;2023-02-10T13:48:25;4.07;;;1.10;;
51184;SDS011;37248;59.350;18.050;2023-02-10T13:50:55;7.85;;;1.20;;
51184;SDS011;37248;59.350;18.050;2023-02-10T13:58:49;4.22;;;1.10;;
51184;SDS011;37248;59.350;18.050;2023-02-10T14:03:58;7.30;;;1.70;;
51184;SDS011;37248;59.350;18.050;2023-02-10T14:09:41;8.37;;;1.23;;
51184;SDS011;37248;59.350;18.050;2023-02-10T14:11:47;9.90;;;1.52;;
51184;SDS011;37248;59.350;18.050;2023-02-10T14:16:42;9.87;;;1.47;;
51184;SDS011;37248;59.350;18.050;2023-02-10T14:21:51;9.23;;;1.65;;
51184;SDS011;37248;59.350;18.050;2023-02-10T14:24:27;8.98;;;1.55;;
51184;SDS011;37248;59.350;18.050;2023-02-10T14:26:53;11.02;;;1.40;;
51184;SDS011;37248;59.350;18.050;2023-02-10T14:29:20;13.10;;;1.50;;
51184;SDS011;37248;59.350;18.050;2023-02-10T14:31:49;9.53;;;1.20;;
51184;SDS011;37248;59.350;18.050;2023-02-10T14:34:26;6.20;;;1.53;;
51184;SDS011;37248;59.350;18.050;2023-02-10T14:39:19;8.57;;;1.83;;
51184;SDS011;37248;59.350;18.050;2023-02-10T14:41:45;10.13;;;2.13;;
51184;SDS011;37248;59.350;18.050;2023-02-10T14:46:54;10.47;;;2.07;;
51184;SDS011;37248;59.350;18.050;2023-02-10T14:49:20;7.78;;;2.38;;
51184;SDS011;37248;59.350;18.050;2023-02-10T14:51:46;7.72;;;2.03;;
51184;SDS011;37248;59.350;18.050;2023-02-10T14:54:15;12.07;;;2.28;;
51184;SDS011;37248;59.350;18.050;2023-02-10T14:56:41;9.52;;;1.95;;
51184;SDS011;37248;59.350;18.050;2023-02-10T14:59:18;11.30;;;2.60;;
51184;SDS011;37248;59.350;18.050;2023-02-10T15:01:43;11.90;;;2.20;;
51184;SDS011;37248;59.350;18.050;2023-02-10T15:04:12;9.57;;;2.20;;
51184;SDS011;37248;59.350;18.050;2023-02-10T15:06:37;10.07;;;2.28;;
51184;SDS011;37248;59.350;18.050;2023-02-10T15:09:04;6.85;;;2.00;;
51184;SDS011;37248;59.350;18.050;2023-02-10T15:11:38;7.25;;;2.40;;
51184;SDS011;37248;59.350;18.050;2023-02-10T15:14:24;8.38;;;2.28;;
51184;SDS011;37248;59.350;18.050;2023-02-10T15:16:50;6.95;;;2.13;;
51184;SDS011;37248;59.350;18.050;2023-02-10T15:19:16;10.23;;;2.20;;
51184;SDS011;37248;59.350;18.050;2023-02-10T15:21:41;8.20;;;2.20;;
51184;SDS011;37248;59.350;18.050;2023-02-10T15:26:47;10.05;;;1.95;;
51184;SDS011;37248;59.350;18.050;2023-02-10T15:29:14;10.37;;;2.07;;
51184;SDS011;37248;59.350;18.050;2023-02-10T15:31:39;10.35;;;1.77;;
51184;SDS011;37248;59.350;18.050;2023-02-10T15:34:17;7.40;;;1.98;;
51184;SDS011;37248;59.350;18.050;2023-02-10T15:36:50;5.07;;;1.60;;
51184;SDS011;37248;59.350;18.050;2023-02-10T15:49:42;6.90;;;1.80;;
51184;SDS011;37248;59.350;18.050;2023-02-10T15:52:13;6.77;;;1.67;;
51184;SDS011;37248;59.350;18.050;2023-02-10T15:54:40;7.25;;;1.98;;
51184;SDS011;37248;59.350;18.050;2023-02-10T15:57:09;6.28;;;1.67;;
51184;SDS011;37248;59.350;18.050;2023-02-10T15:59:35;6.97;;;1.83;;
51184;SDS011;37248;59.350;18.050;2023-02-10T16:02:01;7.37;;;1.97;;
51184;SDS011;37248;59.350;18.050;2023-02-10T16:04:27;7.32;;;1.98;;
51184;SDS011;37248;59.350;18.050;2023-02-10T16:06:54;3.97;;;1.47;;
51184;SDS011;37248;59.350;18.050;2023-02-10T16:09:19;4.30;;;1.63;;
51184;SDS011;37248;59.350;18.050;2023-02-10T16:11:45;4.03;;;1.40;;
51184;SDS011;37248;59.350;18.050;2023-02-10T16:14:10;5.70;;;1.40;;
51184;SDS011;37248;59.350;18.050;2023-02-10T16:16:37;8.37;;;1.37;;
51184;SDS011;37248;59.350;18.050;2023-02-10T16:19:03;6.20;;;1.70;;
51184;SDS011;37248;59.350;18.050;2023-02-10T16:21:29;4.30;;;1.30;;
51184;SDS011;37248;59.350;18.050;2023-02-10T16:23:54;5.40;;;1.60;;
51184;SDS011;37248;59.350;18.050;2023-02-10T16:26:21;6.30;;;1.63;;
51184;SDS011;37248;59.350;18.050;2023-02-10T16:28:46;6.93;;;1.73;;
51184;SDS011;37248;59.350;18.050;2023-02-10T16:31:12;8.00;;;1.65;;
51184;SDS011;37248;59.350;18.050;2023-02-10T16:33:37;8.40;;;1.93;;
51184;SDS011;37248;59.350;18.050;2023-02-10T16:36:05;15.68;;;1.55;;
51184;SDS011;37248;59.350;18.050;2023-02-10T16:38:31;13.40;;;1.98;;
51184;SDS011;37248;59.350;18.050;2023-02-10T16:40:58;9.95;;;1.88;;
51184;SDS011;37248;59.350;18.050;2023-02-10T16:43:23;7.70;;;1.60;;
51184;SDS011;37248;59.350;18.050;2023-02-10T16:45:48;18.97;;;2.40;;
51184;SDS011;37248;59.350;18.050;2023-02-10T16:48:13;6.90;;;2.00;;
51184;SDS011;37248;59.350;18.050;2023-02-10T16:50:40;14.27;;;2.10;;
51184;SDS011;37248;59.350;18.050;2023-02-10T16:53:07;15.20;;;2.20;;
51184;SDS011;37248;59.350;18.050;2023-02-10T16:55:33;17.52;;;2.50;;
51184;SDS011;37248;59.350;18.050;2023-02-10T16:57:59;15.82;;;2.55;;
51184;SDS011;37248;59.350;18.050;2023-02-10T17:00:24;9.10;;;1.93;;
51184;SDS011;37248;59.350;18.050;2023-02-10T17:02:50;9.73;;;1.92;;
51184;SDS011;37248;59.350;18.050;2023-02-10T17:05:16;9.63;;;1.93;;
51184;SDS011;37248;59.350;18.050;2023-02-10T17:07:41;7.90;;;1.85;;